sensor_id;sensor_type;location;lat;lon;timestamp;pressure;altitude;pressure_sealevel;temperature;humidity
46506;BME280;32220;49.808;9.968;2022-07-22T00:01:24;99226.97;;;21.07;57.71
46506;BME280;32220;49.808;9.968;2022-07-22T00:03:52;99223.03;;;21.02;57.97
46506;BME280;32220;49.808;9.968;2022-07-22T00:06:20;99236.34;;;21.03;57.70
46506;BME280;32220;49.808;9.968;2022-07-22T00:08:47;99236.69;;;21.00;57.89
46506;BME280;32220;49.808;9.968;2022-07-22T00:11:17;99241.50;;;20.97;57.88
46506;BME280;32220;49.808;9.968;2022-07-22T00:13:45;99246.19;;;20.95;57.44
46506;BME280;32220;49.808;9.968;2022-07-22T00:16:13;99241.97;;;20.92;57.55
46506;BME280;32220;49.808;9.968;2022-07-22T00:18:41;99244.13;;;20.89;57.57
46506;BME280;32220;49.808;9.968;2022-07-22T00:21:09;99243.56;;;20.85;57.46
46506;BME280;32220;49.808;9.968;2022-07-22T00:23:37;99247.41;;;20.83;58.42
46506;BME280;32220;49.808;9.968;2022-07-22T00:26:05;99241.63;;;20.77;58.01
46506;BME280;32220;49.808;9.968;2022-07-22T00:28:34;99244.63;;;20.74;58.39
46506;BME280;32220;49.808;9.968;2022-07-22T00:31:02;99239.69;;;20.70;58.42
46506;BME280;32220;49.808;9.968;2022-07-22T00:33:30;99244.22;;;20.69;58.87
46506;BME280;32220;49.808;9.968;2022-07-22T00:35:58;99230.06;;;20.67;59.32
46506;BME280;32220;49.808;9.968;2022-07-22T00:38:26;99232.91;;;20.66;59.69
46506;BME280;32220;49.808;9.968;2022-07-22T00:40:53;99236.91;;;20.62;60.08
46506;BME280;32220;49.808;9.968;2022-07-22T00:43:21;99230.13;;;20.58;60.20
46506;BME280;32220;49.808;9.968;2022-07-22T00:45:51;99235.66;;;20.56;60.21
46506;BME280;32220;49.808;9.968;2022-07-22T00:48:19;99235.09;;;20.53;60.05
46506;BME280;32220;49.808;9.968;2022-07-22T00:50:47;99237.13;;;20.51;59.96
46506;BME280;32220;49.808;9.968;2022-07-22T00:53:15;99222.56;;;20.43;60.34
46506;BME280;32220;49.808;9.968;2022-07-22T00:55:43;99219.88;;;20.43;61.13
46506;BME280;32220;49.808;9.968;2022-07-22T00:58:11;99213.78;;;20.41;62.03
46506;BME280;32220;49.808;9.968;2022-07-22T01:00:39;99226.56;;;20.39;61.92
46506;BME280;32220;49.808;9.968;2022-07-22T01:03:09;99231.25;;;20.37;61.39
46506;BME280;32220;49.808;9.968;2022-07-22T01:05:37;99231.50;;;20.34;60.96
46506;BME280;32220;49.808;9.968;2022-07-22T01:08:05;99228.97;;;20.33;62.18
46506;BME280;32220;49.808;9.968;2022-07-22T01:10:32;99222.03;;;20.30;62.92
46506;BME280;32220;49.808;9.968;2022-07-22T01:13:00;99221.78;;;20.24;63.69
46506;BME280;32220;49.808;9.968;2022-07-22T01:15:28;99229.72;;;20.25;62.99
46506;BME280;32220;49.808;9.968;2022-07-22T01:17:56;99228.28;;;20.21;62.94
46506;BME280;32220;49.808;9.968;2022-07-22T01:20:25;99222.22;;;20.19;63.72
46506;BME280;32220;49.808;9.968;2022-07-22T01:22:53;99226.88;;;20.17;64.48
46506;BME280;32220;49.808;9.968;2022-07-22T01:25:21;99220.97;;;20.14;64.27
46506;BME280;32220;49.808;9.968;2022-07-22T01:27:49;99222.13;;;20.11;64.43
46506;BME280;32220;49.808;9.968;2022-07-22T01:30:17;99222.41;;;20.08;64.96
46506;BME280;32220;49.808;9.968;2022-07-22T01:32:45;99221.69;;;20.06;64.45
46506;BME280;32220;49.808;9.968;2022-07-22T01:35:13;99219.28;;;20.03;64.34
46506;BME280;32220;49.808;9.968;2022-07-22T01:37:43;99223.28;;;19.99;64.39
46506;BME280;32220;49.808;9.968;2022-07-22T01:40:11;99219.91;;;19.97;64.70
46506;BME280;32220;49.808;9.968;2022-07-22T01:42:40;99229.22;;;19.93;64.93
46506;BME280;32220;49.808;9.968;2022-07-22T01:45:09;99228.69;;;19.89;64.76
46506;BME280;32220;49.808;9.968;2022-07-22T01:47:37;99234.38;;;19.86;64.63
46506;BME280;32220;49.808;9.968;2022-07-22T01:50:07;99225.72;;;19.83;64.59
46506;BME280;32220;49.808;9.968;2022-07-22T01:52:35;99220.78;;;19.78;66.15
46506;BME280;32220;49.808;9.968;2022-07-22T01:55:07;99221.94;;;19.76;66.61
46506;BME280;32220;49.808;9.968;2022-07-22T01:57:35;99221.22;;;19.73;66.12
46506;BME280;32220;49.808;9.968;2022-07-22T02:00:14;99225.91;;;19.71;65.70
46506;BME280;32220;49.808;9.968;2022-07-22T02:02:46;99209.53;;;19.65;65.59
46506;BME280;32220;49.808;9.968;2022-07-22T02:05:15;99212.34;;;19.63;67.28
46506;BME280;32220;49.808;9.968;2022-07-22T02:07:44;99214.63;;;19.58;66.99
46506;BME280;32220;49.808;9.968;2022-07-22T02:10:13;99219.00;;;19.59;66.45
46506;BME280;32220;49.808;9.968;2022-07-22T02:12:41;99203.00;;;19.48;66.61
46506;BME280;32220;49.808;9.968;2022-07-22T02:15:10;99213.91;;;19.56;67.39
46506;BME280;32220;49.808;9.968;2022-07-22T02:17:39;99213.91;;;19.56;67.42
46506;BME280;32220;49.808;9.968;2022-07-22T02:20:08;99216.06;;;19.53;67.53
46506;BME280;32220;49.808;9.968;2022-07-22T02:22:36;99216.19;;;19.51;67.04
46506;BME280;32220;49.808;9.968;2022-07-22T02:25:04;99205.84;;;19.47;67.26
46506;BME280;32220;49.808;9.968;2022-07-22T02:27:34;99204.13;;;19.46;67.56
46506;BME280;32220;49.808;9.968;2022-07-22T02:30:02;99204.72;;;19.40;67.17
46506;BME280;32220;49.808;9.968;2022-07-22T02:32:30;99208.94;;;19.42;67.59
46506;BME280;32220;49.808;9.968;2022-07-22T02:34:58;99206.56;;;19.39;67.09
46506;BME280;32220;49.808;9.968;2022-07-22T02:37:26;99207.69;;;19.36;67.18
46506;BME280;32220;49.808;9.968;2022-07-22T02:39:54;99221.25;;;19.35;67.35
46506;BME280;32220;49.808;9.968;2022-07-22T02:42:22;99174.75;;;19.06;66.62
46506;BME280;32220;49.808;9.968;2022-07-22T02:44:53;99222.66;;;19.29;66.61
46506;BME280;32220;49.808;9.968;2022-07-22T02:47:21;99223.81;;;19.27;66.46
46506;BME280;32220;49.808;9.968;2022-07-22T02:49:48;99225.06;;;19.23;66.33
46506;BME280;32220;49.808;9.968;2022-07-22T02:52:16;99230.72;;;19.20;65.92
46506;BME280;32220;49.808;9.968;2022-07-22T02:54:43;99231.00;;;19.17;66.60
46506;BME280;32220;49.808;9.968;2022-07-22T02:57:11;99235.25;;;19.10;66.53
46506;BME280;32220;49.808;9.968;2022-07-22T02:59:40;99229.88;;;19.10;66.14
46506;BME280;32220;49.808;9.968;2022-07-22T03:02:09;99233.69;;;19.07;66.69
46506;BME280;32220;49.808;9.968;2022-07-22T03:04:37;99229.59;;;19.03;66.88
46506;BME280;32220;49.808;9.968;2022-07-22T03:07:05;99222.69;;;19.00;67.17
46506;BME280;32220;49.808;9.968;2022-07-22T03:09:33;99236.38;;;18.97;67.44
46506;BME280;32220;49.808;9.968;2022-07-22T03:12:01;99227.59;;;18.95;67.49
46506;BME280;32220;49.808;9.968;2022-07-22T03:14:29;99237.63;;;18.93;67.44
46506;BME280;32220;49.808;9.968;2022-07-22T03:16:56;99236.09;;;18.91;67.62
46506;BME280;32220;49.808;9.968;2022-07-22T03:19:26;99229.16;;;18.88;67.66
46506;BME280;32220;49.808;9.968;2022-07-22T03:21:56;99232.13;;;18.85;67.49
46506;BME280;32220;49.808;9.968;2022-07-22T03:24:24;99234.09;;;18.83;67.97
46506;BME280;32220;49.808;9.968;2022-07-22T03:26:52;99237.03;;;18.80;67.99
46506;BME280;32220;49.808;9.968;2022-07-22T03:29:20;99246.06;;;18.79;67.86
46506;BME280;32220;49.808;9.968;2022-07-22T03:31:47;99246.22;;;18.78;67.70
46506;BME280;32220;49.808;9.968;2022-07-22T03:34:20;99233.81;;;18.77;68.31
46506;BME280;32220;49.808;9.968;2022-07-22T03:36:58;99240.28;;;18.74;68.30
46506;BME280;32220;49.808;9.968;2022-07-22T03:39:26;99238.59;;;18.73;68.30
46506;BME280;32220;49.808;9.968;2022-07-22T03:41:54;99239.69;;;18.71;68.33
46506;BME280;32220;49.808;9.968;2022-07-22T03:44:23;99244.34;;;18.69;68.00
46506;BME280;32220;49.808;9.968;2022-07-22T03:46:51;99244.50;;;18.67;67.91
46506;BME280;32220;49.808;9.968;2022-07-22T03:49:19;99252.53;;;18.67;67.33
46506;BME280;32220;49.808;9.968;2022-07-22T03:51:47;99208.53;;;18.39;67.14
46506;BME280;32220;49.808;9.968;2022-07-22T03:54:16;99250.16;;;18.64;67.56
46506;BME280;32220;49.808;9.968;2022-07-22T03:56:43;99252.38;;;18.59;67.03
46506;BME280;32220;49.808;9.968;2022-07-22T03:59:11;99256.63;;;18.61;67.15
46506;BME280;32220;49.808;9.968;2022-07-22T04:01:39;99255.78;;;18.61;67.03
46506;BME280;32220;49.808;9.968;2022-07-22T04:04:09;99255.78;;;18.61;67.17
46506;BME280;32220;49.808;9.968;2022-07-22T04:06:41;99258.47;;;18.61;67.40
46506;BME280;32220;49.808;9.968;2022-07-22T04:09:18;99256.63;;;18.61;67.15
46506;BME280;32220;49.808;9.968;2022-07-22T04:11:47;99251.13;;;18.63;67.50
46506;BME280;32220;49.808;9.968;2022-07-22T04:14:17;99245.63;;;18.64;67.13
46506;BME280;32220;49.808;9.968;2022-07-22T04:16:46;99244.50;;;18.67;67.46
46506;BME280;32220;49.808;9.968;2022-07-22T04:19:14;99242.53;;;18.69;67.04
46506;BME280;32220;49.808;9.968;2022-07-22T04:21:51;99244.09;;;18.72;66.99
46506;BME280;32220;49.808;9.968;2022-07-22T04:24:22;99240.88;;;18.78;67.96
46506;BME280;32220;49.808;9.968;2022-07-22T04:26:51;99238.72;;;18.81;68.27
46506;BME280;32220;49.808;9.968;2022-07-22T04:29:19;99240.03;;;18.87;68.22
46506;BME280;32220;49.808;9.968;2022-07-22T04:31:47;99234.25;;;18.91;69.05
46506;BME280;32220;49.808;9.968;2022-07-22T04:34:18;99235.66;;;18.95;69.08
46506;BME280;32220;49.808;9.968;2022-07-22T04:36:48;99241.47;;;19.00;68.63
46506;BME280;32220;49.808;9.968;2022-07-22T04:39:16;99246.25;;;19.07;68.09
46506;BME280;32220;49.808;9.968;2022-07-22T04:41:51;99242.03;;;19.14;68.57
46506;BME280;32220;49.808;9.968;2022-07-22T04:44:20;99251.09;;;19.22;68.51
46506;BME280;32220;49.808;9.968;2022-07-22T04:46:48;99259.28;;;19.30;68.01
46506;BME280;32220;49.808;9.968;2022-07-22T04:49:15;99246.00;;;19.38;68.04
46506;BME280;32220;49.808;9.968;2022-07-22T04:51:43;99232.44;;;19.40;68.59
46506;BME280;32220;49.808;9.968;2022-07-22T04:54:16;99246.44;;;19.53;68.92
46506;BME280;32220;49.808;9.968;2022-07-22T04:56:45;99244.88;;;19.60;68.11
46506;BME280;32220;49.808;9.968;2022-07-22T04:59:14;99237.78;;;19.69;68.40
46506;BME280;32220;49.808;9.968;2022-07-22T05:01:42;99250.34;;;19.78;68.23
46506;BME280;32220;49.808;9.968;2022-07-22T05:04:10;99239.75;;;19.86;68.04
46506;BME280;32220;49.808;9.968;2022-07-22T05:06:41;99230.69;;;19.87;68.33
46506;BME280;32220;49.808;9.968;2022-07-22T05:09:08;99236.44;;;20.02;68.23
46506;BME280;32220;49.808;9.968;2022-07-22T05:11:36;99247.31;;;20.10;67.95
46506;BME280;32220;49.808;9.968;2022-07-22T05:14:04;99248.13;;;20.20;67.65
46506;BME280;32220;49.808;9.968;2022-07-22T05:16:35;99244.69;;;20.28;67.50
46506;BME280;32220;49.808;9.968;2022-07-22T05:19:04;99246.78;;;20.34;67.16
46506;BME280;32220;49.808;9.968;2022-07-22T05:21:33;99252.84;;;20.46;66.81
46506;BME280;32220;49.808;9.968;2022-07-22T05:24:01;99251.09;;;20.54;66.59
46506;BME280;32220;49.808;9.968;2022-07-22T05:26:30;99247.28;;;20.57;66.56
46506;BME280;32220;49.808;9.968;2022-07-22T05:28:59;99259.38;;;20.70;66.21
46506;BME280;32220;49.808;9.968;2022-07-22T05:31:28;99256.78;;;20.78;66.27
46506;BME280;32220;49.808;9.968;2022-07-22T05:33:58;99259.59;;;20.87;65.94
46506;BME280;32220;49.808;9.968;2022-07-22T05:36:31;99253.44;;;20.94;65.76
46506;BME280;32220;49.808;9.968;2022-07-22T05:38:59;99257.03;;;21.03;65.51
46506;BME280;32220;49.808;9.968;2022-07-22T05:41:27;99257.00;;;21.12;65.42
46506;BME280;32220;49.808;9.968;2022-07-22T05:43:55;99252.41;;;21.23;64.99
46506;BME280;32220;49.808;9.968;2022-07-22T05:46:23;99246.72;;;21.26;64.40
46506;BME280;32220;49.808;9.968;2022-07-22T05:48:51;99260.19;;;21.43;64.73
46506;BME280;32220;49.808;9.968;2022-07-22T05:51:23;99262.13;;;21.51;64.09
46506;BME280;32220;49.808;9.968;2022-07-22T05:53:51;99258.47;;;21.60;64.06
46506;BME280;32220;49.808;9.968;2022-07-22T05:56:19;99265.31;;;21.72;63.65
46506;BME280;32220;49.808;9.968;2022-07-22T05:58:48;99269.06;;;21.79;63.28
46506;BME280;32220;49.808;9.968;2022-07-22T06:01:16;99270.81;;;21.88;62.89
46506;BME280;32220;49.808;9.968;2022-07-22T06:03:44;99262.78;;;21.97;62.80
46506;BME280;32220;49.808;9.968;2022-07-22T06:06:14;99265.09;;;22.09;62.36
46506;BME280;32220;49.808;9.968;2022-07-22T06:08:44;99271.91;;;22.21;61.86
46506;BME280;32220;49.808;9.968;2022-07-22T06:11:12;99260.31;;;22.29;61.65
46506;BME280;32220;49.808;9.968;2022-07-22T06:13:40;99273.59;;;22.48;61.08
46506;BME280;32220;49.808;9.968;2022-07-22T06:16:08;99282.56;;;22.57;60.84
46506;BME280;32220;49.808;9.968;2022-07-22T06:18:39;99284.13;;;22.68;60.54
46506;BME280;32220;49.808;9.968;2022-07-22T06:21:07;99282.84;;;22.80;60.02
46506;BME280;32220;49.808;9.968;2022-07-22T06:23:36;99289.81;;;22.90;59.37
46506;BME280;32220;49.808;9.968;2022-07-22T06:26:05;99271.59;;;22.92;59.07
46506;BME280;32220;49.808;9.968;2022-07-22T06:28:35;99295.44;;;23.13;58.56
46506;BME280;32220;49.808;9.968;2022-07-22T06:31:04;99277.38;;;23.06;58.37
46506;BME280;32220;49.808;9.968;2022-07-22T06:33:32;99290.41;;;23.26;58.57
46506;BME280;32220;49.808;9.968;2022-07-22T06:36:00;99274.91;;;23.37;58.57
46506;BME280;32220;49.808;9.968;2022-07-22T06:38:29;99284.06;;;23.52;57.86
46506;BME280;32220;49.808;9.968;2022-07-22T06:41:19;99284.09;;;23.60;56.94
46506;BME280;32220;49.808;9.968;2022-07-22T06:44:13;99284.59;;;23.72;56.73
46506;BME280;32220;49.808;9.968;2022-07-22T06:47:00;99293.53;;;23.80;57.02
46506;BME280;32220;49.808;9.968;2022-07-22T06:49:28;99288.28;;;23.87;56.73
46506;BME280;32220;49.808;9.968;2022-07-22T06:51:56;99280.00;;;23.88;56.15
46506;BME280;32220;49.808;9.968;2022-07-22T06:54:24;99289.78;;;24.14;55.49
46506;BME280;32220;49.808;9.968;2022-07-22T06:56:56;99284.38;;;24.30;55.04
46506;BME280;32220;49.808;9.968;2022-07-22T06:59:29;99275.38;;;24.46;54.89
46506;BME280;32220;49.808;9.968;2022-07-22T07:01:57;99271.06;;;24.67;54.28
46506;BME280;32220;49.808;9.968;2022-07-22T07:04:26;99288.19;;;24.99;53.46
46506;BME280;32220;49.808;9.968;2022-07-22T07:06:54;99285.09;;;25.10;53.31
46506;BME280;32220;49.808;9.968;2022-07-22T07:09:48;99277.88;;;25.25;52.20
46506;BME280;32220;49.808;9.968;2022-07-22T07:12:31;99274.47;;;25.54;51.68
46506;BME280;32220;49.808;9.968;2022-07-22T07:15:08;99284.66;;;25.75;51.00
46506;BME280;32220;49.808;9.968;2022-07-22T07:17:36;99275.44;;;25.84;51.07
46506;BME280;32220;49.808;9.968;2022-07-22T07:20:07;99271.19;;;26.04;50.71
46506;BME280;32220;49.808;9.968;2022-07-22T07:22:35;99271.22;;;26.34;50.16
46506;BME280;32220;49.808;9.968;2022-07-22T07:25:04;99274.31;;;26.60;49.72
46506;BME280;32220;49.808;9.968;2022-07-22T07:27:34;99280.25;;;26.93;48.65
46506;BME280;32220;49.808;9.968;2022-07-22T07:30:06;99278.38;;;27.30;47.58
46506;BME280;32220;49.808;9.968;2022-07-22T07:32:35;99267.97;;;27.76;46.74
46506;BME280;32220;49.808;9.968;2022-07-22T07:35:03;99291.44;;;28.60;45.09
46506;BME280;32220;49.808;9.968;2022-07-22T07:37:31;99307.81;;;29.49;42.22
46506;BME280;32220;49.808;9.968;2022-07-22T07:40:00;99283.75;;;30.25;40.49
46506;BME280;32220;49.808;9.968;2022-07-22T07:42:28;99300.47;;;30.88;40.41
46506;BME280;32220;49.808;9.968;2022-07-22T07:44:57;99308.59;;;31.15;39.94
46506;BME280;32220;49.808;9.968;2022-07-22T07:47:25;99314.19;;;31.33;39.05
46506;BME280;32220;49.808;9.968;2022-07-22T07:49:53;99316.72;;;31.72;37.76
46506;BME280;32220;49.808;9.968;2022-07-22T07:52:21;99317.91;;;32.58;36.45
46506;BME280;32220;49.808;9.968;2022-07-22T07:54:49;99306.25;;;32.87;35.69
46506;BME280;32220;49.808;9.968;2022-07-22T07:57:17;99311.63;;;32.94;36.15
46506;BME280;32220;49.808;9.968;2022-07-22T07:59:45;99320.72;;;32.76;35.50
46506;BME280;32220;49.808;9.968;2022-07-22T08:02:14;99306.78;;;32.53;35.29
46506;BME280;32220;49.808;9.968;2022-07-22T08:04:42;99308.84;;;32.39;35.77
46506;BME280;32220;49.808;9.968;2022-07-22T08:07:14;99300.22;;;32.54;36.29
46506;BME280;32220;49.808;9.968;2022-07-22T08:09:43;99303.69;;;33.22;35.09
46506;BME280;32220;49.808;9.968;2022-07-22T08:12:20;99288.94;;;33.95;33.71
46506;BME280;32220;49.808;9.968;2022-07-22T08:15:17;99317.25;;;35.12;32.44
46506;BME280;32220;49.808;9.968;2022-07-22T08:17:50;99324.47;;;35.01;31.51
46506;BME280;32220;49.808;9.968;2022-07-22T08:20:18;99310.88;;;34.59;32.96
46506;BME280;32220;49.808;9.968;2022-07-22T08:22:46;99314.47;;;34.48;32.63
46506;BME280;32220;49.808;9.968;2022-07-22T08:25:14;99303.78;;;34.99;31.59
46506;BME280;32220;49.808;9.968;2022-07-22T08:27:41;99325.31;;;35.98;30.65
46506;BME280;32220;49.808;9.968;2022-07-22T08:30:10;99325.13;;;36.89;30.00
46506;BME280;32220;49.808;9.968;2022-07-22T08:32:38;99321.31;;;37.60;28.71
46506;BME280;32220;49.808;9.968;2022-07-22T08:35:09;99334.81;;;38.05;27.38
46506;BME280;32220;49.808;9.968;2022-07-22T08:37:37;99332.78;;;38.28;27.57
46506;BME280;32220;49.808;9.968;2022-07-22T08:40:06;99318.97;;;38.28;27.54
46506;BME280;32220;49.808;9.968;2022-07-22T08:42:37;99315.91;;;38.61;27.51
46506;BME280;32220;49.808;9.968;2022-07-22T08:45:06;99294.63;;;39.19;26.97
46506;BME280;32220;49.808;9.968;2022-07-22T08:47:34;99337.00;;;40.22;24.89
46506;BME280;32220;49.808;9.968;2022-07-22T08:50:25;99333.47;;;41.32;23.66
46506;BME280;32220;49.808;9.968;2022-07-22T08:53:02;99328.91;;;42.35;23.37
46506;BME280;32220;49.808;9.968;2022-07-22T08:55:31;99333.09;;;43.19;21.73
46506;BME280;32220;49.808;9.968;2022-07-22T08:57:59;99330.94;;;43.11;21.67
46506;BME280;32220;49.808;9.968;2022-07-22T09:00:27;99327.56;;;41.93;22.48
46506;BME280;32220;49.808;9.968;2022-07-22T09:02:55;99310.06;;;40.43;24.08
46506;BME280;32220;49.808;9.968;2022-07-22T09:05:32;99298.56;;;39.38;25.38
46506;BME280;32220;49.808;9.968;2022-07-22T09:08:03;99288.47;;;38.55;26.64
46506;BME280;32220;49.808;9.968;2022-07-22T09:10:40;99277.75;;;37.99;27.30
46506;BME280;32220;49.808;9.968;2022-07-22T09:13:34;99280.81;;;37.44;27.31
46506;BME280;32220;49.808;9.968;2022-07-22T09:16:38;99275.63;;;37.04;27.74
46506;BME280;32220;49.808;9.968;2022-07-22T09:19:31;99273.38;;;36.62;28.10
46506;BME280;32220;49.808;9.968;2022-07-22T09:22:46;99266.84;;;36.30;28.89
46506;BME280;32220;49.808;9.968;2022-07-22T09:25:29;99254.13;;;36.12;28.66
46506;BME280;32220;49.808;9.968;2022-07-22T09:28:18;99281.91;;;36.22;28.33
46506;BME280;32220;49.808;9.968;2022-07-22T09:31:25;99261.78;;;36.22;28.74
46506;BME280;32220;49.808;9.968;2022-07-22T09:33:56;99258.47;;;35.91;29.20
46506;BME280;32220;49.808;9.968;2022-07-22T09:36:27;99243.72;;;35.52;30.05
46506;BME280;32220;49.808;9.968;2022-07-22T09:38:58;99261.31;;;35.80;28.93
46506;BME280;32220;49.808;9.968;2022-07-22T09:41:25;99242.34;;;36.00;28.55
46506;BME280;32220;49.808;9.968;2022-07-22T09:43:53;99234.75;;;35.90;28.39
46506;BME280;32220;49.808;9.968;2022-07-22T09:46:34;99263.41;;;36.23;28.13
46506;BME280;32220;49.808;9.968;2022-07-22T09:49:30;99254.28;;;36.39;28.11
46506;BME280;32220;49.808;9.968;2022-07-22T09:52:19;99263.66;;;36.21;27.74
46506;BME280;32220;49.808;9.968;2022-07-22T09:55:04;99249.44;;;36.46;27.89
46506;BME280;32220;49.808;9.968;2022-07-22T09:57:32;99249.84;;;38.01;26.17
46506;BME280;32220;49.808;9.968;2022-07-22T10:00:01;99274.50;;;39.49;23.81
46506;BME280;32220;49.808;9.968;2022-07-22T10:02:45;99284.25;;;39.97;22.95
46506;BME280;32220;49.808;9.968;2022-07-22T10:05:16;99277.00;;;39.71;22.80
46506;BME280;32220;49.808;9.968;2022-07-22T10:07:45;99266.06;;;39.13;23.63
46506;BME280;32220;49.808;9.968;2022-07-22T10:10:16;99268.25;;;38.59;24.25
46506;BME280;32220;49.808;9.968;2022-07-22T10:12:47;99249.31;;;38.04;24.88
46506;BME280;32220;49.808;9.968;2022-07-22T10:15:16;99255.38;;;38.01;25.07
46506;BME280;32220;49.808;9.968;2022-07-22T10:17:46;99245.88;;;38.24;24.49
46506;BME280;32220;49.808;9.968;2022-07-22T10:20:17;99253.09;;;38.67;24.35
46506;BME280;32220;49.808;9.968;2022-07-22T10:22:51;99254.25;;;39.59;23.22
46506;BME280;32220;49.808;9.968;2022-07-22T10:25:22;99249.84;;;40.34;22.35
46506;BME280;32220;49.808;9.968;2022-07-22T10:27:55;99255.19;;;41.15;21.53
46506;BME280;32220;49.808;9.968;2022-07-22T10:30:26;99247.94;;;42.02;20.72
46506;BME280;32220;49.808;9.968;2022-07-22T10:33:08;99250.03;;;42.15;20.78
46506;BME280;32220;49.808;9.968;2022-07-22T10:35:50;99256.47;;;41.77;20.96
46506;BME280;32220;49.808;9.968;2022-07-22T10:38:20;99229.47;;;41.33;21.55
46506;BME280;32220;49.808;9.968;2022-07-22T10:40:52;99240.41;;;41.19;21.47
46506;BME280;32220;49.808;9.968;2022-07-22T10:43:21;99232.72;;;41.89;21.02
46506;BME280;32220;49.808;9.968;2022-07-22T10:45:51;99247.94;;;42.02;20.39
46506;BME280;32220;49.808;9.968;2022-07-22T10:48:22;99236.72;;;41.73;21.20
46506;BME280;32220;49.808;9.968;2022-07-22T10:51:07;99235.38;;;41.27;21.72
46506;BME280;32220;49.808;9.968;2022-07-22T10:53:40;99233.63;;;40.81;21.83
46506;BME280;32220;49.808;9.968;2022-07-22T10:56:31;99229.78;;;40.72;21.78
46506;BME280;32220;49.808;9.968;2022-07-22T10:59:08;99221.72;;;40.71;21.96
46506;BME280;32220;49.808;9.968;2022-07-22T11:01:38;99216.72;;;40.78;21.84
46506;BME280;32220;49.808;9.968;2022-07-22T11:04:08;99204.16;;;40.90;21.84
46506;BME280;32220;49.808;9.968;2022-07-22T11:06:36;99214.03;;;41.07;21.45
46506;BME280;32220;49.808;9.968;2022-07-22T11:09:05;99209.59;;;41.11;21.71
46506;BME280;32220;49.808;9.968;2022-07-22T11:11:42;99207.13;;;41.04;21.79
46506;BME280;32220;49.808;9.968;2022-07-22T11:14:15;99211.88;;;40.99;21.87
46506;BME280;32220;49.808;9.968;2022-07-22T11:16:44;99189.75;;;40.68;21.64
46506;BME280;32220;49.808;9.968;2022-07-22T11:19:12;99193.22;;;40.40;22.03
46506;BME280;32220;49.808;9.968;2022-07-22T11:21:40;99193.81;;;40.16;22.10
46506;BME280;32220;49.808;9.968;2022-07-22T11:24:08;99186.03;;;40.08;22.45
46506;BME280;32220;49.808;9.968;2022-07-22T11:26:41;99186.34;;;39.92;22.43
46506;BME280;32220;49.808;9.968;2022-07-22T11:29:15;99177.19;;;39.76;23.36
46506;BME280;32220;49.808;9.968;2022-07-22T11:31:43;99173.56;;;39.70;23.34
46506;BME280;32220;49.808;9.968;2022-07-22T11:34:12;99176.63;;;39.59;22.74
46506;BME280;32220;49.808;9.968;2022-07-22T11:36:42;99177.75;;;39.53;23.17
46506;BME280;32220;49.808;9.968;2022-07-22T11:39:12;99167.19;;;39.80;23.00
46506;BME280;32220;49.808;9.968;2022-07-22T11:41:41;99161.03;;;40.18;22.68
46506;BME280;32220;49.808;9.968;2022-07-22T11:44:09;99166.53;;;40.44;21.95
46506;BME280;32220;49.808;9.968;2022-07-22T11:46:38;99162.13;;;40.22;21.57
46506;BME280;32220;49.808;9.968;2022-07-22T11:49:07;99158.50;;;40.37;21.80
46506;BME280;32220;49.808;9.968;2022-07-22T11:51:37;99158.84;;;41.34;21.59
46506;BME280;32220;49.808;9.968;2022-07-22T11:54:05;99163.41;;;42.46;20.01
46506;BME280;32220;49.808;9.968;2022-07-22T11:56:34;99164.91;;;43.56;19.23
46506;BME280;32220;49.808;9.968;2022-07-22T11:59:05;99164.19;;;44.70;18.53
46506;BME280;32220;49.808;9.968;2022-07-22T12:01:34;99168.72;;;45.65;17.16
46506;BME280;32220;49.808;9.968;2022-07-22T12:04:04;99157.19;;;46.60;16.50
46506;BME280;32220;49.808;9.968;2022-07-22T12:06:33;99165.59;;;47.51;15.87
46506;BME280;32220;49.808;9.968;2022-07-22T12:09:07;99151.09;;;48.21;15.29
46506;BME280;32220;49.808;9.968;2022-07-22T12:11:36;99156.50;;;48.94;14.37
46506;BME280;32220;49.808;9.968;2022-07-22T12:14:08;99142.34;;;49.23;14.59
46506;BME280;32220;49.808;9.968;2022-07-22T12:16:37;99140.81;;;49.47;14.17
46506;BME280;32220;49.808;9.968;2022-07-22T12:19:07;99139.31;;;49.70;14.02
46506;BME280;32220;49.808;9.968;2022-07-22T12:21:36;99124.91;;;49.96;14.21
46506;BME280;32220;49.808;9.968;2022-07-22T12:24:05;99134.81;;;50.51;14.13
46506;BME280;32220;49.808;9.968;2022-07-22T12:26:46;99136.56;;;51.04;13.65
46506;BME280;32220;49.808;9.968;2022-07-22T12:29:18;99132.84;;;51.28;12.78
46506;BME280;32220;49.808;9.968;2022-07-22T12:31:48;99133.34;;;51.46;12.80
46506;BME280;32220;49.808;9.968;2022-07-22T12:34:23;99137.41;;;51.60;12.51
46506;BME280;32220;49.808;9.968;2022-07-22T12:36:56;99129.09;;;51.52;13.03
46506;BME280;32220;49.808;9.968;2022-07-22T12:39:24;99118.31;;;51.42;12.63
46506;BME280;32220;49.808;9.968;2022-07-22T12:41:54;99127.38;;;50.95;12.77
46506;BME280;32220;49.808;9.968;2022-07-22T12:44:25;99123.94;;;51.14;13.03
46506;BME280;32220;49.808;9.968;2022-07-22T12:46:55;99117.78;;;51.52;12.67
46506;BME280;32220;49.808;9.968;2022-07-22T12:49:24;99118.38;;;51.73;12.66
46506;BME280;32220;49.808;9.968;2022-07-22T12:52:09;99107.63;;;51.63;12.35
46506;BME280;32220;49.808;9.968;2022-07-22T12:54:38;99114.03;;;51.48;12.71
46506;BME280;32220;49.808;9.968;2022-07-22T12:57:07;99113.56;;;51.46;12.52
46506;BME280;32220;49.808;9.968;2022-07-22T12:59:37;99099.31;;;51.54;12.87
46506;BME280;32220;49.808;9.968;2022-07-22T13:02:05;99104.19;;;51.85;12.31
46506;BME280;32220;49.808;9.968;2022-07-22T13:04:32;99101.28;;;51.97;12.33
46506;BME280;32220;49.808;9.968;2022-07-22T13:07:00;99075.97;;;51.42;13.08
46506;BME280;32220;49.808;9.968;2022-07-22T13:09:28;99090.72;;;51.51;12.70
46506;BME280;32220;49.808;9.968;2022-07-22T13:11:55;99093.34;;;51.87;12.50
46506;BME280;32220;49.808;9.968;2022-07-22T13:14:23;99089.44;;;52.08;12.27
46506;BME280;32220;49.808;9.968;2022-07-22T13:16:53;99077.69;;;52.05;12.79
46506;BME280;32220;49.808;9.968;2022-07-22T13:19:21;99088.63;;;52.23;12.06